createdAt,value
2022-07-26T00:01:01.353Z,83.33
2022-07-26T00:03:30.662Z,83.33
2022-07-26T00:05:58.586Z,83.74
2022-07-26T00:08:26.736Z,84.30
2022-07-26T00:10:54.678Z,84.93
2022-07-26T00:13:23.283Z,84.66
2022-07-26T00:15:52.252Z,84.42
2022-07-26T00:18:20.802Z,84.00
2022-07-26T00:20:50.537Z,83.66
2022-07-26T00:23:19.480Z,82.67
2022-07-26T00:25:47.994Z,83.49
2022-07-26T00:28:15.891Z,83.76
2022-07-26T00:30:43.911Z,83.70
2022-07-26T00:33:11.776Z,83.68
2022-07-26T00:35:39.829Z,83.86
2022-07-26T00:38:09.204Z,83.67
2022-07-26T00:40:37.355Z,83.30
2022-07-26T00:43:05.280Z,82.92
2022-07-26T00:45:33.287Z,83.22
2022-07-26T00:48:01.180Z,83.20
2022-07-26T00:50:29.017Z,83.13
2022-07-26T00:52:57.194Z,83.24
2022-07-26T00:55:26.463Z,82.81
2022-07-26T00:57:54.443Z,82.68
2022-07-26T01:00:26.518Z,82.84
2022-07-26T01:02:55.279Z,83.52
2022-07-26T01:05:24.265Z,83.08
2022-07-26T01:07:53.079Z,82.95
2022-07-26T01:10:21.172Z,82.23
2022-07-26T01:12:50.509Z,81.87
2022-07-26T01:15:18.537Z,82.56
2022-07-26T01:17:47.480Z,82.49
2022-07-26T01:20:15.724Z,82.72
2022-07-26T01:22:45.094Z,83.01
2022-07-26T01:25:12.981Z,83.26
2022-07-26T01:27:41.127Z,82.57
2022-07-26T01:30:12.489Z,83.72
2022-07-26T01:32:40.498Z,84.45
2022-07-26T01:35:09.695Z,84.33
2022-07-26T01:37:37.698Z,84.81
2022-07-26T01:40:08.482Z,85.44
2022-07-26T01:42:40.756Z,85.49
2022-07-26T01:45:09.971Z,85.87
2022-07-26T01:47:38.227Z,86.59
2022-07-26T01:50:07.886Z,86.94
2022-07-26T01:52:35.927Z,87.36
2022-07-26T01:55:04.025Z,87.74
2022-07-26T01:57:33.298Z,88.62
2022-07-26T02:00:01.270Z,88.95
2022-07-26T02:02:29.742Z,88.47
2022-07-26T02:05:00.378Z,89.14
2022-07-26T02:07:29.493Z,88.70
2022-07-26T02:09:57.984Z,88.66
2022-07-26T02:12:26.477Z,88.23
2022-07-26T02:14:55.833Z,89.02
2022-07-26T02:17:23.801Z,88.78
2022-07-26T02:19:52.395Z,89.25
2022-07-26T02:22:21.069Z,90.68
2022-07-26T02:24:49.356Z,90.69
2022-07-26T02:27:18.545Z,90.10
2022-07-26T02:29:46.505Z,89.69
2022-07-26T02:32:15.844Z,89.84
2022-07-26T02:34:43.793Z,90.61
2022-07-26T02:37:11.656Z,90.42
2022-07-26T02:39:39.553Z,91.71
2022-07-26T02:42:07.549Z,92.16
2022-07-26T02:44:36.665Z,92.94
2022-07-26T02:47:04.607Z,92.01
2022-07-26T02:49:33.865Z,92.08
2022-07-26T02:52:01.741Z,93.02
2022-07-26T02:54:29.624Z,93.36
2022-07-26T02:56:57.478Z,93.62
2022-07-26T02:59:25.380Z,94.14
2022-07-26T03:01:53.307Z,94.20
2022-07-26T03:04:21.286Z,92.85
2022-07-26T03:06:50.582Z,93.03
2022-07-26T03:09:18.565Z,93.44
2022-07-26T03:11:46.462Z,93.76
2022-07-26T03:14:14.452Z,93.97
2022-07-26T03:16:42.363Z,94.47
2022-07-26T03:19:10.287Z,94.52
2022-07-26T03:21:38.184Z,94.64
2022-07-26T03:24:08.446Z,94.24
2022-07-26T03:26:36.613Z,94.82
2022-07-26T03:29:04.644Z,94.68
2022-07-26T03:31:32.582Z,94.20
2022-07-26T03:34:03.246Z,94.65
2022-07-26T03:36:31.465Z,94.36
2022-07-26T03:38:59.394Z,94.76
2022-07-26T03:41:31.616Z,94.76
2022-07-26T03:43:59.521Z,94.95
2022-07-26T03:46:27.567Z,95.15
2022-07-26T03:48:55.701Z,95.02
2022-07-26T03:51:23.747Z,95.15
2022-07-26T03:53:51.931Z,95.48
2022-07-26T03:56:32.067Z,96.00
2022-07-26T03:59:03.930Z,94.60
2022-07-26T04:01:32.315Z,94.53
2022-07-26T04:04:00.381Z,94.72
2022-07-26T04:06:29.545Z,94.30
2022-07-26T04:08:57.905Z,94.04
2022-07-26T04:11:28.260Z,93.89
2022-07-26T04:13:56.950Z,93.76
2022-07-26T04:16:26.403Z,93.50
2022-07-26T04:18:54.521Z,93.94
2022-07-26T04:21:22.974Z,92.94
2022-07-26T04:23:51.735Z,92.81
2022-07-26T04:26:20.215Z,92.40
2022-07-26T04:28:48.518Z,91.63
2022-07-26T04:31:16.718Z,91.17
2022-07-26T04:33:46.003Z,90.62
2022-07-26T04:36:13.993Z,90.21
2022-07-26T04:38:42.187Z,89.67
2022-07-26T04:41:10.205Z,88.67
2022-07-26T04:43:38.125Z,88.23
2022-07-26T04:46:06.133Z,87.57
2022-07-26T04:48:34.114Z,86.80
2022-07-26T04:51:03.575Z,86.47
2022-07-26T04:53:31.659Z,86.10
2022-07-26T04:56:14.678Z,85.11
2022-07-26T04:58:42.565Z,85.39
2022-07-26T05:01:11.207Z,83.94
2022-07-26T05:03:39.414Z,81.14
2022-07-26T05:06:08.985Z,78.54
2022-07-26T05:08:36.903Z,77.22
2022-07-26T05:11:05.163Z,76.15
2022-07-26T05:13:33.053Z,75.11
2022-07-26T05:16:01.935Z,74.27
2022-07-26T05:18:48.810Z,73.37
2022-07-26T05:21:19.718Z,72.08
2022-07-26T05:23:47.649Z,71.09
2022-07-26T05:26:15.839Z,69.95
2022-07-26T05:28:43.757Z,69.46
2022-07-26T05:31:11.718Z,66.58
2022-07-26T05:33:39.644Z,64.39
2022-07-26T05:36:07.888Z,63.20
2022-07-26T05:38:37.220Z,62.32
2022-07-26T05:41:05.520Z,60.72
2022-07-26T05:43:41.606Z,60.36
2022-07-26T05:46:10.846Z,59.23
2022-07-26T05:48:39.031Z,58.75
2022-07-26T05:51:07.153Z,60.48
2022-07-26T05:53:35.092Z,62.28
2022-07-26T05:56:04.811Z,62.23
2022-07-26T05:58:32.796Z,59.85
2022-07-26T06:01:00.705Z,59.94
2022-07-26T06:03:30.156Z,57.09
2022-07-26T06:05:59.743Z,57.04
2022-07-26T06:08:27.772Z,54.83
2022-07-26T06:10:56.247Z,54.11
2022-07-26T06:13:25.600Z,53.69
2022-07-26T06:15:53.717Z,54.76
2022-07-26T06:18:21.612Z,55.06
2022-07-26T06:20:50.411Z,55.44
2022-07-26T06:23:18.273Z,52.36
2022-07-26T06:26:02.265Z,53.72
2022-07-26T06:28:31.542Z,52.39
2022-07-26T06:30:59.570Z,52.78
2022-07-26T06:33:27.552Z,52.99
2022-07-26T06:35:55.409Z,52.51
2022-07-26T06:38:23.651Z,52.80
2022-07-26T06:40:51.565Z,52.44
2022-07-26T06:43:19.545Z,50.61
2022-07-26T06:45:49.428Z,50.89
2022-07-26T06:48:17.440Z,50.12
2022-07-26T06:50:45.537Z,49.51
2022-07-26T06:53:13.529Z,49.53
2022-07-26T06:55:42.680Z,50.59
2022-07-26T06:58:10.953Z,49.96
2022-07-26T07:00:38.898Z,49.34
2022-07-26T07:03:08.282Z,49.33
2022-07-26T07:05:36.205Z,48.98
2022-07-26T07:08:04.725Z,48.13
2022-07-26T07:10:35.326Z,49.54
2022-07-26T07:13:04.004Z,49.96
2022-07-26T07:15:31.934Z,49.07
2022-07-26T07:17:59.797Z,48.17
2022-07-26T07:20:29.496Z,49.38
2022-07-26T07:22:57.425Z,48.39
2022-07-26T07:25:30.835Z,46.74
2022-07-26T07:27:59.353Z,46.36
2022-07-26T07:30:27.927Z,47.07
2022-07-26T07:32:56.825Z,45.90
2022-07-26T07:35:25.093Z,46.01
2022-07-26T07:38:02.026Z,46.59
2022-07-26T07:40:30.320Z,45.35
2022-07-26T07:42:58.875Z,43.12
2022-07-26T07:45:26.912Z,42.63
2022-07-26T07:47:54.976Z,42.74
2022-07-26T07:50:22.897Z,42.32
2022-07-26T07:52:55.328Z,42.73
2022-07-26T07:55:43.987Z,44.55
2022-07-26T07:58:14.557Z,42.75
2022-07-26T08:00:42.748Z,41.44
2022-07-26T08:03:10.642Z,40.15
2022-07-26T08:05:40.415Z,40.52
2022-07-26T08:08:08.812Z,41.23
2022-07-26T08:10:41.829Z,42.01
2022-07-26T08:13:16.983Z,40.88
2022-07-26T08:15:49.273Z,40.48
2022-07-26T08:18:17.342Z,40.34
2022-07-26T08:20:47.677Z,39.34
2022-07-26T08:23:16.524Z,39.29
2022-07-26T08:25:55.609Z,38.41
2022-07-26T08:28:45.606Z,39.05
2022-07-26T08:31:11.971Z,38.02
2022-07-26T08:33:40.827Z,37.73
2022-07-26T08:36:13.663Z,38.91
2022-07-26T08:38:41.915Z,38.96
2022-07-26T08:41:11.172Z,39.04
2022-07-26T08:43:50.974Z,38.32
2022-07-26T08:46:25.299Z,38.21
2022-07-26T08:48:54.304Z,37.95
2022-07-26T08:51:24.655Z,37.24
2022-07-26T08:54:04.102Z,36.85
2022-07-26T08:56:35.876Z,36.07
2022-07-26T08:59:18.810Z,37.14
2022-07-26T09:01:58.829Z,36.15
2022-07-26T09:04:32.314Z,36.05
2022-07-26T09:07:07.188Z,34.47
2022-07-26T09:09:37.701Z,34.74
2022-07-26T09:12:18.255Z,34.57
2022-07-26T09:14:47.700Z,35.03
2022-07-26T09:17:17.225Z,33.79
2022-07-26T09:19:45.289Z,33.98
2022-07-26T09:22:15.971Z,33.61
2022-07-26T09:24:46.223Z,32.68
2022-07-26T09:27:18.213Z,32.84
2022-07-26T09:29:48.433Z,30.88
2022-07-26T09:32:19.357Z,32.08
2022-07-26T09:34:52.964Z,32.26
2022-07-26T09:37:34.273Z,31.52
2022-07-26T09:40:03.948Z,31.60
2022-07-26T09:42:33.241Z,30.91
2022-07-26T09:45:01.378Z,30.80
2022-07-26T09:47:39.768Z,31.47
2022-07-26T09:50:12.612Z,28.09
2022-07-26T09:52:40.943Z,26.32
2022-07-26T09:55:10.445Z,26.84
2022-07-26T09:57:39.861Z,27.49
2022-07-26T10:00:09.171Z,28.27
2022-07-26T10:02:37.112Z,28.71
2022-07-26T10:05:05.325Z,29.72
2022-07-26T10:07:33.481Z,30.19
2022-07-26T10:10:05.489Z,30.17
2022-07-26T10:12:34.557Z,30.37
2022-07-26T10:15:04.014Z,29.60
2022-07-26T10:17:42.738Z,28.56
2022-07-26T10:20:17.259Z,28.14
2022-07-26T10:22:49.030Z,28.37
2022-07-26T10:25:48.676Z,27.83
2022-07-26T10:28:28.638Z,27.73
2022-07-26T10:31:29.412Z,25.97
2022-07-26T10:33:59.376Z,27.22
2022-07-26T10:36:32.495Z,27.55
2022-07-26T10:39:12.507Z,28.07
2022-07-26T10:41:43.926Z,27.24
2022-07-26T10:44:17.278Z,27.67
2022-07-26T10:47:20.575Z,27.16
2022-07-26T10:49:58.547Z,27.70
2022-07-26T10:52:28.428Z,27.91
2022-07-26T10:55:18.119Z,28.21
2022-07-26T10:57:48.999Z,27.89
2022-07-26T11:00:23.423Z,26.42
2022-07-26T11:02:57.690Z,25.93
2022-07-26T11:05:31.161Z,26.92
2022-07-26T11:08:08.218Z,27.66
2022-07-26T11:10:38.076Z,28.27
2022-07-26T11:13:12.032Z,28.37
2022-07-26T11:15:42.718Z,27.55
2022-07-26T11:18:24.983Z,28.07
2022-07-26T11:20:56.610Z,27.65
2022-07-26T11:23:33.576Z,27.26
2022-07-26T11:26:09.879Z,27.64
2022-07-26T11:28:52.895Z,26.27
2022-07-26T11:31:23.671Z,26.11
2022-07-26T11:34:18.305Z,26.14
2022-07-26T11:36:48.324Z,24.38
2022-07-26T11:39:21.761Z,24.96
2022-07-26T11:41:52.264Z,24.04
2022-07-26T11:44:21.825Z,24.89
2022-07-26T11:46:50.729Z,25.17
2022-07-26T11:49:22.848Z,25.59
2022-07-26T11:51:53.973Z,24.93
2022-07-26T11:54:22.618Z,25.09
2022-07-26T11:56:59.182Z,25.74
2022-07-26T11:59:29.049Z,25.50
2022-07-26T12:01:58.043Z,24.53
2022-07-26T12:04:27.629Z,25.45
2022-07-26T12:06:59.287Z,25.62
2022-07-26T12:09:32.357Z,26.25
2022-07-26T12:12:00.774Z,25.95
2022-07-26T12:14:29.558Z,26.74
2022-07-26T12:16:58.006Z,27.81
2022-07-26T12:19:29.788Z,27.72
2022-07-26T12:22:08.488Z,28.18
2022-07-26T12:24:49.825Z,27.25
2022-07-26T12:27:19.797Z,27.13
2022-07-26T12:29:50.344Z,26.98
2022-07-26T12:32:19.578Z,28.32
2022-07-26T12:35:00.160Z,28.27
2022-07-26T12:37:39.771Z,27.81
2022-07-26T12:40:11.505Z,28.62
2022-07-26T12:42:41.612Z,28.91
2022-07-26T12:45:12.278Z,29.26
2022-07-26T12:47:41.959Z,28.90
2022-07-26T12:50:11.962Z,29.09
2022-07-26T12:52:41.867Z,29.53
2022-07-26T12:55:14.538Z,28.11
2022-07-26T12:57:45.978Z,29.38
2022-07-26T13:00:18.491Z,28.63
2022-07-26T13:02:47.027Z,28.86
2022-07-26T13:05:15.415Z,28.51
2022-07-26T13:07:44.772Z,28.89
2022-07-26T13:10:32.398Z,28.60
2022-07-26T13:13:01.250Z,28.09
2022-07-26T13:15:36.584Z,28.17
2022-07-26T13:18:06.584Z,28.03
2022-07-26T13:20:34.544Z,27.55
2022-07-26T13:23:04.363Z,27.54
2022-07-26T13:25:38.343Z,28.44
2022-07-26T13:28:08.983Z,27.72
2022-07-26T13:30:39.320Z,27.54
2022-07-26T13:33:08.179Z,26.96
2022-07-26T13:35:38.925Z,26.30
2022-07-26T13:38:08.158Z,26.51
2022-07-26T13:40:36.280Z,25.60
2022-07-26T13:43:05.430Z,25.71
2022-07-26T13:45:33.337Z,25.66
2022-07-26T13:48:01.324Z,25.58
2022-07-26T13:50:29.295Z,25.28
2022-07-26T13:52:57.746Z,26.35
2022-07-26T13:55:27.037Z,27.45
2022-07-26T13:57:56.799Z,27.93
2022-07-26T14:00:25.970Z,28.59
2022-07-26T14:02:53.990Z,28.40
2022-07-26T14:05:22.001Z,28.43
2022-07-26T14:07:50.302Z,28.94
2022-07-26T14:10:18.304Z,28.80
2022-07-26T14:12:47.891Z,28.64
2022-07-26T14:15:21.618Z,29.19
2022-07-26T14:17:50.893Z,29.29
2022-07-26T14:20:18.884Z,29.63
2022-07-26T14:22:47.823Z,29.23
2022-07-26T14:25:15.789Z,28.90
2022-07-26T14:27:44.202Z,29.11
2022-07-26T14:30:14.776Z,28.89
2022-07-26T14:32:42.683Z,29.19
2022-07-26T14:35:11.325Z,29.53
2022-07-26T14:37:43.251Z,29.40
2022-07-26T14:40:14.040Z,29.52
2022-07-26T14:42:42.097Z,29.01
2022-07-26T14:45:10.926Z,30.11
2022-07-26T14:47:40.578Z,29.24
2022-07-26T14:50:10.188Z,29.27
2022-07-26T14:52:39.130Z,29.77
2022-07-26T14:55:07.978Z,29.79
2022-07-26T14:57:38.217Z,29.94
2022-07-26T15:00:09.345Z,29.76
2022-07-26T15:02:41.312Z,29.31
2022-07-26T15:05:10.474Z,29.21
2022-07-26T15:07:38.662Z,29.43
2022-07-26T15:10:08.265Z,29.69
2022-07-26T15:12:36.336Z,29.26
2022-07-26T15:15:05.047Z,29.16
2022-07-26T15:17:33.186Z,29.50
2022-07-26T15:20:02.954Z,29.59
2022-07-26T15:22:30.896Z,30.53
2022-07-26T15:24:58.756Z,30.38
2022-07-26T15:27:26.655Z,30.00
2022-07-26T15:29:58.276Z,30.13
2022-07-26T15:32:30.688Z,30.40
2022-07-26T15:34:58.827Z,29.73
2022-07-26T15:37:28.907Z,29.55
2022-07-26T15:39:56.866Z,29.86
2022-07-26T15:42:24.795Z,30.09
2022-07-26T15:44:53.042Z,29.76
2022-07-26T15:47:52.210Z,30.67
2022-07-26T15:50:11.756Z,30.39
2022-07-26T15:52:44.491Z,30.14
2022-07-26T15:55:14.180Z,30.32
2022-07-26T15:57:42.511Z,30.63
2022-07-26T16:00:12.555Z,31.27
2022-07-26T16:02:41.366Z,30.95
2022-07-26T16:05:10.581Z,30.38
2022-07-26T16:07:41.648Z,30.10
2022-07-26T16:10:10.691Z,30.67
2022-07-26T16:12:38.788Z,30.41
2022-07-26T16:15:08.504Z,30.61
2022-07-26T16:17:36.524Z,30.53
2022-07-26T16:20:05.623Z,30.66
2022-07-26T16:22:33.559Z,30.57
2022-07-26T16:25:02.917Z,30.89
2022-07-26T16:27:30.834Z,31.03
2022-07-26T16:29:58.758Z,30.79
2022-07-26T16:32:26.704Z,30.78
2022-07-26T16:34:54.577Z,31.00
2022-07-26T16:37:22.634Z,30.98
2022-07-26T16:39:50.623Z,31.44
2022-07-26T16:42:19.961Z,31.16
2022-07-26T16:44:47.845Z,31.22
2022-07-26T16:47:15.864Z,31.24
2022-07-26T16:49:43.857Z,31.68
2022-07-26T16:52:11.772Z,31.69
2022-07-26T16:54:39.697Z,32.27
2022-07-26T16:57:07.587Z,32.26
2022-07-26T16:59:36.886Z,32.16
2022-07-26T17:02:05.373Z,32.23
2022-07-26T17:04:33.293Z,32.86
2022-07-26T17:07:23.857Z,33.00
2022-07-26T17:09:49.413Z,32.73
2022-07-26T17:12:17.521Z,32.71
2022-07-26T17:14:46.831Z,32.99
2022-07-26T17:17:14.740Z,32.67
2022-07-26T17:19:42.671Z,32.62
2022-07-26T17:22:10.574Z,32.86
2022-07-26T17:24:38.468Z,33.24
2022-07-26T17:27:06.596Z,33.20
2022-07-26T17:29:34.622Z,33.39
2022-07-26T17:32:03.964Z,33.60
2022-07-26T17:34:32.257Z,33.51
2022-07-26T17:37:01.214Z,33.28
2022-07-26T17:39:52.718Z,33.80
2022-07-26T17:42:19.422Z,34.06
2022-07-26T17:44:47.281Z,33.60
2022-07-26T17:47:17.995Z,34.00
2022-07-26T17:50:09.031Z,33.97
2022-07-26T17:52:42.353Z,34.43
2022-07-26T17:55:10.894Z,35.14
2022-07-26T17:57:38.873Z,35.86
2022-07-26T18:00:08.072Z,34.78
2022-07-26T18:02:37.360Z,35.36
2022-07-26T18:05:05.775Z,35.68
2022-07-26T18:07:33.822Z,36.18
2022-07-26T18:10:01.729Z,36.26
2022-07-26T18:12:30.515Z,36.34
2022-07-26T18:14:58.457Z,36.54
2022-07-26T18:17:26.437Z,36.74
2022-07-26T18:19:55.692Z,37.14
2022-07-26T18:22:24.143Z,37.97
2022-07-26T18:24:52.058Z,38.54
2022-07-26T18:27:19.956Z,38.51
2022-07-26T18:29:47.844Z,38.98
2022-07-26T18:32:16.270Z,39.01
2022-07-26T18:34:51.818Z,39.37
2022-07-26T18:37:22.445Z,39.52
2022-07-26T18:39:57.011Z,39.56
2022-07-26T18:42:25.666Z,39.26
2022-07-26T18:44:53.673Z,39.78
2022-07-26T18:47:21.823Z,39.82
2022-07-26T18:49:50.233Z,40.22
2022-07-26T18:52:32.283Z,40.62
2022-07-26T18:55:06.727Z,40.32
2022-07-26T18:57:35.572Z,40.70
2022-07-26T19:00:03.711Z,41.44
2022-07-26T19:02:31.971Z,41.43
2022-07-26T19:04:59.918Z,41.57
2022-07-26T19:07:27.879Z,41.78
2022-07-26T19:09:58.581Z,42.40
2022-07-26T19:12:28.819Z,42.95
2022-07-26T19:14:59.842Z,43.78
2022-07-26T19:17:27.936Z,43.73
2022-07-26T19:19:58.409Z,44.11
2022-07-26T19:22:29.230Z,44.74
2022-07-26T19:24:57.208Z,44.40
2022-07-26T19:27:25.960Z,44.50
2022-07-26T19:29:56.849Z,44.38
2022-07-26T19:32:26.314Z,44.30
2022-07-26T19:34:56.660Z,44.46
2022-07-26T19:37:24.657Z,44.42
2022-07-26T19:39:53.786Z,45.49
2022-07-26T19:42:21.724Z,44.89
2022-07-26T19:44:50.673Z,44.84
2022-07-26T19:47:20.000Z,45.14
2022-07-26T19:49:49.299Z,45.40
2022-07-26T19:52:17.224Z,45.50
2022-07-26T19:54:45.154Z,45.55
2022-07-26T19:57:13.083Z,45.32
2022-07-26T19:59:41.078Z,45.71
2022-07-26T20:02:09.290Z,45.60
2022-07-26T20:04:40.770Z,45.21
2022-07-26T20:07:12.037Z,46.36
2022-07-26T20:09:40.001Z,46.08
2022-07-26T20:12:07.969Z,46.45
2022-07-26T20:14:35.922Z,46.59
2022-07-26T20:17:03.869Z,46.66
2022-07-26T20:19:41.512Z,47.11
2022-07-26T20:22:09.420Z,47.83
2022-07-26T20:24:38.343Z,47.55
2022-07-26T20:27:06.754Z,47.73
2022-07-26T20:29:34.952Z,48.45
2022-07-26T20:32:02.916Z,49.23
2022-07-26T20:34:31.001Z,50.17
2022-07-26T20:37:00.263Z,50.66
2022-07-26T20:39:28.159Z,50.37
2022-07-26T20:41:57.154Z,50.61
2022-07-26T20:44:28.496Z,51.68
2022-07-26T20:46:56.620Z,51.59
2022-07-26T20:49:24.691Z,50.98
2022-07-26T20:51:52.661Z,50.98
2022-07-26T20:54:21.959Z,51.05
2022-07-26T20:56:49.950Z,51.68
2022-07-26T20:59:17.886Z,52.01
2022-07-26T21:01:45.836Z,52.69
2022-07-26T21:04:13.749Z,53.21
2022-07-26T21:06:41.639Z,53.68
2022-07-26T21:09:10.549Z,53.21
2022-07-26T21:11:40.517Z,54.36
2022-07-26T21:14:08.424Z,54.97
2022-07-26T21:16:36.541Z,53.96
2022-07-26T21:19:05.766Z,54.29
2022-07-26T21:21:34.748Z,54.95
2022-07-26T21:24:02.716Z,54.99
2022-07-26T21:26:30.648Z,55.17
2022-07-26T21:28:59.999Z,55.13
2022-07-26T21:31:27.920Z,55.18
2022-07-26T21:33:55.853Z,55.43
2022-07-26T21:36:24.271Z,55.26
2022-07-26T21:38:52.163Z,54.53
2022-07-26T21:41:21.077Z,54.75
2022-07-26T21:43:49.330Z,55.17
2022-07-26T21:46:18.574Z,55.08
2022-07-26T21:48:46.581Z,54.62
2022-07-26T21:51:14.533Z,53.73
2022-07-26T21:53:42.446Z,53.31
2022-07-26T21:56:11.285Z,53.31
2022-07-26T21:58:39.629Z,53.44
2022-07-26T22:01:08.173Z,53.51
2022-07-26T22:03:38.397Z,53.44
2022-07-26T22:06:07.138Z,54.04
2022-07-26T22:08:35.326Z,53.63
2022-07-26T22:11:04.645Z,53.62
2022-07-26T22:13:32.897Z,53.68
2022-07-26T22:16:00.933Z,53.46
2022-07-26T22:18:29.363Z,53.51
2022-07-26T22:20:58.985Z,53.83
2022-07-26T22:23:30.205Z,53.76
2022-07-26T22:25:59.123Z,53.68
2022-07-26T22:28:27.304Z,53.90
2022-07-26T22:30:55.713Z,54.37
2022-07-26T22:33:24.468Z,53.96
2022-07-26T22:35:52.795Z,54.41
2022-07-26T22:38:22.223Z,54.37
2022-07-26T22:40:50.143Z,55.12
2022-07-26T22:43:18.328Z,55.35
2022-07-26T22:45:46.338Z,55.61
2022-07-26T22:48:14.307Z,55.96
2022-07-26T22:50:42.322Z,56.75
2022-07-26T22:53:10.178Z,56.03
2022-07-26T22:55:39.456Z,56.17
2022-07-26T22:58:07.367Z,56.86
2022-07-26T23:00:35.362Z,57.35
2022-07-26T23:03:03.316Z,57.95
2022-07-26T23:05:46.609Z,58.44
2022-07-26T23:11:05.361Z,59.63
2022-07-26T23:13:33.320Z,60.31
2022-07-26T23:16:01.974Z,59.43
2022-07-26T23:18:30.712Z,59.68
2022-07-26T23:20:58.919Z,59.90
2022-07-26T23:23:29.273Z,60.38
2022-07-26T23:25:58.813Z,60.50
2022-07-26T23:28:37.152Z,61.31
2022-07-26T23:31:10.794Z,60.98
2022-07-26T23:33:52.129Z,61.66
2022-07-26T23:36:25.841Z,61.67
2022-07-26T23:38:54.490Z,61.73
2022-07-26T23:41:22.957Z,61.48
2022-07-26T23:43:52.725Z,61.89
2022-07-26T23:46:20.787Z,62.52
2022-07-26T23:48:49.100Z,62.60
2022-07-26T23:51:17.536Z,62.63
2022-07-26T23:53:45.500Z,63.10
2022-07-26T23:56:13.736Z,63.87
2022-07-26T23:58:41.747Z,63.82
